sensor_id;sensor_type;location;lat;lon;timestamp;pressure;altitude;pressure_sealevel;temperature;humidity
13080;BME280;6606;49.154;9.280;2024-02-21T00:01:54;100669.25;;;7.91;100.00
13080;BME280;6606;49.154;9.280;2024-02-21T00:04:36;100670.34;;;7.84;100.00
13080;BME280;6606;49.154;9.280;2024-02-21T00:07:19;100670.13;;;7.92;100.00
13080;BME280;6606;49.154;9.280;2024-02-21T00:10:00;100659.66;;;7.87;100.00
13080;BME280;6606;49.154;9.280;2024-02-21T00:12:43;100653.78;;;7.78;100.00
13080;BME280;6606;49.154;9.280;2024-02-21T00:15:25;100648.25;;;7.85;100.00
13080;BME280;6606;49.154;9.280;2024-02-21T00:18:07;100648.97;;;7.92;100.00
13080;BME280;6606;49.154;9.280;2024-02-21T00:20:48;100644.00;;;7.80;100.00
13080;BME280;6606;49.154;9.280;2024-02-21T00:23:30;100633.94;;;7.92;100.00
13080;BME280;6606;49.154;9.280;2024-02-21T00:26:12;100627.03;;;7.88;100.00
13080;BME280;6606;49.154;9.280;2024-02-21T00:28:55;100625.19;;;7.90;100.00
13080;BME280;6606;49.154;9.280;2024-02-21T00:31:37;100624.41;;;7.87;100.00
13080;BME280;6606;49.154;9.280;2024-02-21T00:34:19;100623.28;;;7.95;100.00
13080;BME280;6606;49.154;9.280;2024-02-21T00:37:00;100616.44;;;7.88;100.00
13080;BME280;6606;49.154;9.280;2024-02-21T00:39:42;100612.53;;;8.02;100.00
13080;BME280;6606;49.154;9.280;2024-02-21T00:42:24;100613.63;;;7.94;100.00
13080;BME280;6606;49.154;9.280;2024-02-21T00:45:08;100608.53;;;7.87;100.00
13080;BME280;6606;49.154;9.280;2024-02-21T00:47:50;100605.06;;;7.85;100.00
13080;BME280;6606;49.154;9.280;2024-02-21T00:50:31;100604.66;;;7.99;100.00
13080;BME280;6606;49.154;9.280;2024-02-21T00:53:13;100609.31;;;7.90;100.00
13080;BME280;6606;49.154;9.280;2024-02-21T00:55:55;100605.94;;;7.85;100.00
13080;BME280;6606;49.154;9.280;2024-02-21T00:58:37;100600.38;;;7.94;100.00
13080;BME280;6606;49.154;9.280;2024-02-21T01:01:23;100601.34;;;7.92;100.00
13080;BME280;6606;49.154;9.280;2024-02-21T01:04:05;100602.34;;;7.88;100.00
13080;BME280;6606;49.154;9.280;2024-02-21T01:06:47;100603.06;;;7.93;100.00
13080;BME280;6606;49.154;9.280;2024-02-21T01:09:29;100592.59;;;7.90;100.00
13080;BME280;6606;49.154;9.280;2024-02-21T01:12:10;100589.94;;;7.90;100.00
13080;BME280;6606;49.154;9.280;2024-02-21T01:14:52;100583.34;;;7.75;100.00
13080;BME280;6606;49.154;9.280;2024-02-21T01:17:35;100573.63;;;7.76;100.00
13080;BME280;6606;49.154;9.280;2024-02-21T01:20:17;100578.22;;;7.69;100.00
13080;BME280;6606;49.154;9.280;2024-02-21T01:22:59;100574.56;;;7.73;100.00
13080;BME280;6606;49.154;9.280;2024-02-21T01:25:41;100567.53;;;7.72;100.00
13080;BME280;6606;49.154;9.280;2024-02-21T01:28:22;100567.63;;;7.69;100.00
13080;BME280;6606;49.154;9.280;2024-02-21T01:31:04;100553.44;;;7.73;100.00
13080;BME280;6606;49.154;9.280;2024-02-21T01:33:50;100550.69;;;7.76;100.00
13080;BME280;6606;49.154;9.280;2024-02-21T01:36:31;100549.19;;;7.67;100.00
13080;BME280;6606;49.154;9.280;2024-02-21T01:39:13;100548.06;;;7.75;100.00
13080;BME280;6606;49.154;9.280;2024-02-21T01:41:55;100542.31;;;7.62;100.00
13080;BME280;6606;49.154;9.280;2024-02-21T01:44:36;100544.56;;;7.74;100.00
13080;BME280;6606;49.154;9.280;2024-02-21T01:47:20;100540.44;;;7.65;100.00
13080;BME280;6606;49.154;9.280;2024-02-21T01:50:03;100533.16;;;7.72;100.00
13080;BME280;6606;49.154;9.280;2024-02-21T01:52:46;100525.09;;;7.77;100.00
13080;BME280;6606;49.154;9.280;2024-02-21T01:55:30;100512.94;;;7.71;100.00
13080;BME280;6606;49.154;9.280;2024-02-21T01:58:12;100521.78;;;7.70;100.00
13080;BME280;6606;49.154;9.280;2024-02-21T02:00:56;100519.88;;;7.75;100.00
13080;BME280;6606;49.154;9.280;2024-02-21T02:03:38;100512.47;;;7.86;100.00
13080;BME280;6606;49.154;9.280;2024-02-21T02:06:21;100514.38;;;7.81;100.00
13080;BME280;6606;49.154;9.280;2024-02-21T02:09:03;100519.88;;;7.75;100.00
13080;BME280;6606;49.154;9.280;2024-02-21T02:11:45;100523.59;;;7.68;100.00
13080;BME280;6606;49.154;9.280;2024-02-21T02:14:27;100522.66;;;7.70;100.00
13080;BME280;6606;49.154;9.280;2024-02-21T02:17:09;100519.31;;;7.64;100.00
13080;BME280;6606;49.154;9.280;2024-02-21T02:19:50;100523.06;;;7.57;100.00
13080;BME280;6606;49.154;9.280;2024-02-21T02:22:36;100538.00;;;7.58;100.00
13080;BME280;6606;49.154;9.280;2024-02-21T02:25:21;100532.81;;;7.55;100.00
13080;BME280;6606;49.154;9.280;2024-02-21T02:28:03;100530.03;;;7.59;100.00
13080;BME280;6606;49.154;9.280;2024-02-21T02:30:45;100529.53;;;7.46;100.00
13080;BME280;6606;49.154;9.280;2024-02-21T02:33:27;100519.91;;;7.44;100.00
13080;BME280;6606;49.154;9.280;2024-02-21T02:36:09;100514.72;;;7.41;100.00
13080;BME280;6606;49.154;9.280;2024-02-21T02:38:50;100506.06;;;7.36;100.00
13080;BME280;6606;49.154;9.280;2024-02-21T02:41:36;100503.53;;;7.31;100.00
13080;BME280;6606;49.154;9.280;2024-02-21T02:44:17;100504.84;;;7.16;100.00
13080;BME280;6606;49.154;9.280;2024-02-21T02:46:59;100499.59;;;7.15;100.00
13080;BME280;6606;49.154;9.280;2024-02-21T02:49:41;100490.75;;;7.16;100.00
13080;BME280;6606;49.154;9.280;2024-02-21T02:52:24;100489.94;;;7.14;100.00
13080;BME280;6606;49.154;9.280;2024-02-21T02:55:07;100484.66;;;7.14;100.00
13080;BME280;6606;49.154;9.280;2024-02-21T02:57:50;100473.22;;;7.13;100.00
13080;BME280;6606;49.154;9.280;2024-02-21T03:00:32;100469.81;;;7.10;100.00
13080;BME280;6606;49.154;9.280;2024-02-21T03:03:16;100470.63;;;7.12;100.00
13080;BME280;6606;49.154;9.280;2024-02-21T03:05:58;100460.81;;;7.17;100.00
13080;BME280;6606;49.154;9.280;2024-02-21T03:08:40;100459.88;;;7.18;100.00
13080;BME280;6606;49.154;9.280;2024-02-21T03:11:21;100460.06;;;7.12;100.00
13080;BME280;6606;49.154;9.280;2024-02-21T03:14:10;100451.09;;;7.17;100.00
13080;BME280;6606;49.154;9.280;2024-02-21T03:16:53;100445.66;;;7.22;100.00
13080;BME280;6606;49.154;9.280;2024-02-21T03:19:34;100444.63;;;7.27;100.00
13080;BME280;6606;49.154;9.280;2024-02-21T03:22:16;100428.59;;;7.34;100.00
13080;BME280;6606;49.154;9.280;2024-02-21T03:24:58;100424.25;;;7.31;100.00
13080;BME280;6606;49.154;9.280;2024-02-21T03:27:39;100426.09;;;7.29;100.00
13080;BME280;6606;49.154;9.280;2024-02-21T03:30:22;100431.28;;;7.32;100.00
13080;BME280;6606;49.154;9.280;2024-02-21T03:33:04;100421.09;;;7.20;100.00
13080;BME280;6606;49.154;9.280;2024-02-21T03:35:46;100426.63;;;7.11;100.00
13080;BME280;6606;49.154;9.280;2024-02-21T03:38:28;100435.47;;;7.10;100.00
13080;BME280;6606;49.154;9.280;2024-02-21T03:41:10;100424.16;;;7.03;100.00
13080;BME280;6606;49.154;9.280;2024-02-21T03:44:00;100421.53;;;7.03;100.00
13080;BME280;6606;49.154;9.280;2024-02-21T03:46:43;100415.44;;;7.01;100.00
13080;BME280;6606;49.154;9.280;2024-02-21T03:49:25;100410.94;;;7.04;100.00
13080;BME280;6606;49.154;9.280;2024-02-21T03:52:06;100400.72;;;6.92;100.00
13080;BME280;6606;49.154;9.280;2024-02-21T03:54:49;100406.09;;;6.89;100.00
13080;BME280;6606;49.154;9.280;2024-02-21T03:57:31;100403.22;;;6.97;100.00
13080;BME280;6606;49.154;9.280;2024-02-21T04:00:13;100402.28;;;6.99;100.00
13080;BME280;6606;49.154;9.280;2024-02-21T04:02:56;100401.31;;;7.02;100.00
13080;BME280;6606;49.154;9.280;2024-02-21T04:05:38;100393.63;;;6.94;100.00
13080;BME280;6606;49.154;9.280;2024-02-21T04:08:22;100383.97;;;6.93;100.00
13080;BME280;6606;49.154;9.280;2024-02-21T04:11:04;100379.59;;;6.92;100.00
13080;BME280;6606;49.154;9.280;2024-02-21T04:13:46;100379.97;;;6.80;100.00
13080;BME280;6606;49.154;9.280;2024-02-21T04:16:30;100370.69;;;6.65;100.00
13080;BME280;6606;49.154;9.280;2024-02-21T04:19:21;100380.91;;;6.46;100.00
13080;BME280;6606;49.154;9.280;2024-02-21T04:22:03;100369.50;;;6.44;100.00
13080;BME280;6606;49.154;9.280;2024-02-21T04:24:45;100377.41;;;6.46;100.00
13080;BME280;6606;49.154;9.280;2024-02-21T04:27:26;100379.22;;;6.44;100.00
13080;BME280;6606;49.154;9.280;2024-02-21T04:30:09;100394.47;;;6.32;100.00
13080;BME280;6606;49.154;9.280;2024-02-21T04:32:51;100383.84;;;6.34;100.00
13080;BME280;6606;49.154;9.280;2024-02-21T04:35:35;100382.16;;;6.31;100.00
13080;BME280;6606;49.154;9.280;2024-02-21T04:38:17;100389.34;;;6.26;100.00
13080;BME280;6606;49.154;9.280;2024-02-21T04:40:59;100398.19;;;6.24;100.00
13080;BME280;6606;49.154;9.280;2024-02-21T04:43:59;100398.19;;;6.24;100.00
13080;BME280;6606;49.154;9.280;2024-02-21T04:46:51;100399.09;;;6.23;100.00
13080;BME280;6606;49.154;9.280;2024-02-21T04:49:33;100406.28;;;6.17;100.00
13080;BME280;6606;49.154;9.280;2024-02-21T04:52:16;100380.88;;;6.13;100.00
13080;BME280;6606;49.154;9.280;2024-02-21T04:54:57;100378.22;;;6.13;100.00
13080;BME280;6606;49.154;9.280;2024-02-21T04:57:39;100377.53;;;6.07;100.00
13080;BME280;6606;49.154;9.280;2024-02-21T05:00:21;100383.88;;;6.00;100.00
13080;BME280;6606;49.154;9.280;2024-02-21T05:03:34;100386.59;;;5.96;100.00
13080;BME280;6606;49.154;9.280;2024-02-21T05:06:15;100373.75;;;5.83;100.00
13080;BME280;6606;49.154;9.280;2024-02-21T05:09:17;100360.84;;;5.72;100.00
13080;BME280;6606;49.154;9.280;2024-02-21T05:11:58;100357.47;;;5.65;100.00
13080;BME280;6606;49.154;9.280;2024-02-21T05:14:40;100361.09;;;5.61;100.00
13080;BME280;6606;49.154;9.280;2024-02-21T05:17:22;100342.84;;;5.53;100.00
13080;BME280;6606;49.154;9.280;2024-02-21T05:20:04;100344.13;;;5.36;100.00
13080;BME280;6606;49.154;9.280;2024-02-21T05:22:46;100342.50;;;5.32;100.00
13080;BME280;6606;49.154;9.280;2024-02-21T05:25:32;100344.16;;;5.34;100.00
13080;BME280;6606;49.154;9.280;2024-02-21T05:28:14;100328.25;;;5.39;100.00
13080;BME280;6606;49.154;9.280;2024-02-21T05:30:55;100332.50;;;5.46;100.00
13080;BME280;6606;49.154;9.280;2024-02-21T05:33:37;100327.22;;;5.46;100.00
13080;BME280;6606;49.154;9.280;2024-02-21T05:36:19;100320.41;;;5.37;100.00
13080;BME280;6606;49.154;9.280;2024-02-21T05:39:00;100323.00;;;5.39;100.00
13080;BME280;6606;49.154;9.280;2024-02-21T05:41:43;100321.28;;;5.36;100.00
13080;BME280;6606;49.154;9.280;2024-02-21T05:44:25;100309.22;;;5.27;100.00
13080;BME280;6606;49.154;9.280;2024-02-21T05:47:07;100310.50;;;5.09;100.00
13080;BME280;6606;49.154;9.280;2024-02-21T05:49:51;100321.00;;;5.11;100.00
13080;BME280;6606;49.154;9.280;2024-02-21T05:52:34;100324.69;;;5.04;100.00
13080;BME280;6606;49.154;9.280;2024-02-21T05:55:16;100323.03;;;5.00;100.00
13080;BME280;6606;49.154;9.280;2024-02-21T05:57:59;100309.03;;;4.98;100.00
13080;BME280;6606;49.154;9.280;2024-02-21T06:00:40;100309.88;;;4.98;100.00
13080;BME280;6606;49.154;9.280;2024-02-21T06:03:22;100323.22;;;4.89;100.00
13080;BME280;6606;49.154;9.280;2024-02-21T06:06:05;100331.25;;;4.84;100.00
13080;BME280;6606;49.154;9.280;2024-02-21T06:08:52;100328.81;;;4.75;100.00
13080;BME280;6606;49.154;9.280;2024-02-21T06:11:34;100326.25;;;4.72;100.00
13080;BME280;6606;49.154;9.280;2024-02-21T06:14:23;100315.69;;;4.74;100.00
13080;BME280;6606;49.154;9.280;2024-02-21T06:17:05;100323.47;;;4.78;100.00
13080;BME280;6606;49.154;9.280;2024-02-21T06:19:47;100321.81;;;4.74;100.00
13080;BME280;6606;49.154;9.280;2024-02-21T06:22:30;100317.44;;;4.73;100.00
13080;BME280;6606;49.154;9.280;2024-02-21T06:25:12;100324.59;;;4.67;100.00
13080;BME280;6606;49.154;9.280;2024-02-21T06:27:54;100322.81;;;4.69;100.00
13080;BME280;6606;49.154;9.280;2024-02-21T06:30:37;100323.59;;;4.72;100.00
13080;BME280;6606;49.154;9.280;2024-02-21T06:33:19;100319.31;;;4.68;100.00
13080;BME280;6606;49.154;9.280;2024-02-21T06:36:05;100312.38;;;4.64;100.00
13080;BME280;6606;49.154;9.280;2024-02-21T06:38:47;100313.22;;;4.66;100.00
13080;BME280;6606;49.154;9.280;2024-02-21T06:41:28;100307.97;;;4.66;100.00
13080;BME280;6606;49.154;9.280;2024-02-21T06:44:11;100311.38;;;4.71;100.00
13080;BME280;6606;49.154;9.280;2024-02-21T06:46:54;100298.13;;;4.74;100.00
13080;BME280;6606;49.154;9.280;2024-02-21T06:49:36;100297.28;;;4.72;100.00
13080;BME280;6606;49.154;9.280;2024-02-21T06:52:18;100290.09;;;4.80;100.00
13080;BME280;6606;49.154;9.280;2024-02-21T06:55:01;100291.72;;;4.88;100.00
13080;BME280;6606;49.154;9.280;2024-02-21T06:57:42;100289.84;;;4.93;100.00
13080;BME280;6606;49.154;9.280;2024-02-21T07:00:24;100295.78;;;5.01;100.00
13080;BME280;6606;49.154;9.280;2024-02-21T07:03:08;100292.06;;;5.09;100.00
13080;BME280;6606;49.154;9.280;2024-02-21T07:05:50;100289.34;;;5.14;100.00
13080;BME280;6606;49.154;9.280;2024-02-21T07:08:31;100294.44;;;5.20;100.00
13080;BME280;6606;49.154;9.280;2024-02-21T07:11:13;100286.38;;;5.28;100.00
13080;BME280;6606;49.154;9.280;2024-02-21T07:13:55;100284.56;;;5.32;100.00
13080;BME280;6606;49.154;9.280;2024-02-21T07:16:37;100279.97;;;5.40;100.00
13080;BME280;6606;49.154;9.280;2024-02-21T07:19:20;100267.47;;;5.48;100.00
13080;BME280;6606;49.154;9.280;2024-02-21T07:22:02;100273.47;;;5.53;100.00
13080;BME280;6606;49.154;9.280;2024-02-21T07:24:43;100279.50;;;5.58;100.00
13080;BME280;6606;49.154;9.280;2024-02-21T07:27:25;100268.72;;;5.67;100.00
13080;BME280;6606;49.154;9.280;2024-02-21T07:30:17;100276.97;;;5.88;100.00
13080;BME280;6606;49.154;9.280;2024-02-21T07:32:58;100272.97;;;6.06;100.00
13080;BME280;6606;49.154;9.280;2024-02-21T07:35:42;100274.06;;;6.30;100.00
13080;BME280;6606;49.154;9.280;2024-02-21T07:38:25;100271.69;;;6.50;100.00
13080;BME280;6606;49.154;9.280;2024-02-21T07:41:06;100257.91;;;7.28;100.00
13080;BME280;6606;49.154;9.280;2024-02-21T07:43:48;100252.16;;;9.11;100.00
13080;BME280;6606;49.154;9.280;2024-02-21T07:46:30;100246.81;;;8.89;100.00
13080;BME280;6606;49.154;9.280;2024-02-21T07:49:12;100253.56;;;8.51;100.00
13080;BME280;6606;49.154;9.280;2024-02-21T07:51:55;100240.81;;;8.15;100.00
13080;BME280;6606;49.154;9.280;2024-02-21T07:54:37;100230.78;;;8.00;100.00
13080;BME280;6606;49.154;9.280;2024-02-21T07:57:18;100233.66;;;8.17;100.00
13080;BME280;6606;49.154;9.280;2024-02-21T08:00:00;100237.91;;;8.21;100.00
13080;BME280;6606;49.154;9.280;2024-02-21T08:02:52;100242.66;;;8.36;100.00
13080;BME280;6606;49.154;9.280;2024-02-21T08:05:34;100242.50;;;8.16;100.00
13080;BME280;6606;49.154;9.280;2024-02-21T08:08:18;100243.69;;;8.32;100.00
13080;BME280;6606;49.154;9.280;2024-02-21T08:11:02;100245.41;;;8.10;100.00
13080;BME280;6606;49.154;9.280;2024-02-21T08:13:43;100241.94;;;8.08;100.00
13080;BME280;6606;49.154;9.280;2024-02-21T08:16:26;100239.56;;;8.25;100.00
13080;BME280;6606;49.154;9.280;2024-02-21T08:19:08;100237.41;;;8.58;100.00
13080;BME280;6606;49.154;9.280;2024-02-21T08:21:50;100234.09;;;8.75;100.00
13080;BME280;6606;49.154;9.280;2024-02-21T08:24:34;100231.06;;;9.08;100.00
13080;BME280;6606;49.154;9.280;2024-02-21T08:27:15;100229.56;;;9.23;100.00
13080;BME280;6606;49.154;9.280;2024-02-21T08:29:57;100227.75;;;9.45;100.00
13080;BME280;6606;49.154;9.280;2024-02-21T08:32:38;100219.59;;;9.30;100.00
13080;BME280;6606;49.154;9.280;2024-02-21T08:35:20;100227.44;;;9.53;100.00
13080;BME280;6606;49.154;9.280;2024-02-21T08:38:03;100229.28;;;9.51;100.00
13080;BME280;6606;49.154;9.280;2024-02-21T08:40:46;100222.66;;;9.41;100.00
13080;BME280;6606;49.154;9.280;2024-02-21T08:43:28;100216.31;;;9.45;100.00
13080;BME280;6606;49.154;9.280;2024-02-21T08:46:12;100211.66;;;9.50;100.00
13080;BME280;6606;49.154;9.280;2024-02-21T08:48:54;100207.34;;;9.88;100.00
13080;BME280;6606;49.154;9.280;2024-02-21T08:51:35;100202.06;;;10.07;100.00
13080;BME280;6606;49.154;9.280;2024-02-21T08:54:17;100202.22;;;10.04;100.00
13080;BME280;6606;49.154;9.280;2024-02-21T08:57:00;100207.50;;;10.04;100.00
13080;BME280;6606;49.154;9.280;2024-02-21T08:59:44;100201.00;;;10.11;100.00
13080;BME280;6606;49.154;9.280;2024-02-21T09:02:25;100200.22;;;10.28;100.00
13080;BME280;6606;49.154;9.280;2024-02-21T09:05:07;100194.38;;;10.01;100.00
13080;BME280;6606;49.154;9.280;2024-02-21T09:07:49;100192.69;;;9.80;100.00
13080;BME280;6606;49.154;9.280;2024-02-21T09:10:31;100191.16;;;9.95;100.00
13080;BME280;6606;49.154;9.280;2024-02-21T09:13:26;100183.84;;;10.00;100.00
13080;BME280;6606;49.154;9.280;2024-02-21T09:16:08;100184.28;;;10.09;100.00
13080;BME280;6606;49.154;9.280;2024-02-21T09:18:49;100178.28;;;9.85;100.00
13080;BME280;6606;49.154;9.280;2024-02-21T09:21:32;100185.84;;;9.95;100.00
13080;BME280;6606;49.154;9.280;2024-02-21T09:24:14;100189.03;;;9.62;100.00
13080;BME280;6606;49.154;9.280;2024-02-21T09:26:56;100182.22;;;9.77;100.00
13080;BME280;6606;49.154;9.280;2024-02-21T09:29:40;100182.31;;;9.94;100.00
13080;BME280;6606;49.154;9.280;2024-02-21T09:32:22;100169.22;;;10.10;100.00
13080;BME280;6606;49.154;9.280;2024-02-21T09:35:04;100180.56;;;10.13;100.00
13080;BME280;6606;49.154;9.280;2024-02-21T09:37:46;100173.13;;;10.22;100.00
13080;BME280;6606;49.154;9.280;2024-02-21T09:40:28;100171.25;;;10.24;100.00
13080;BME280;6606;49.154;9.280;2024-02-21T09:43:10;100176.28;;;10.30;100.00
13080;BME280;6606;49.154;9.280;2024-02-21T09:45:55;100168.72;;;10.21;100.00
13080;BME280;6606;49.154;9.280;2024-02-21T09:48:45;100166.00;;;10.41;100.00
13080;BME280;6606;49.154;9.280;2024-02-21T09:51:30;100160.34;;;10.11;100.00
13080;BME280;6606;49.154;9.280;2024-02-21T09:54:14;100157.59;;;10.12;100.00
13080;BME280;6606;49.154;9.280;2024-02-21T09:56:56;100161.72;;;10.57;100.00
13080;BME280;6606;49.154;9.280;2024-02-21T09:59:37;100153.59;;;10.61;100.00
13080;BME280;6606;49.154;9.280;2024-02-21T10:02:20;100148.44;;;10.57;100.00
13080;BME280;6606;49.154;9.280;2024-02-21T10:05:03;100141.13;;;10.63;100.00
13080;BME280;6606;49.154;9.280;2024-02-21T10:07:48;100139.94;;;10.87;100.00
13080;BME280;6606;49.154;9.280;2024-02-21T10:10:40;100140.16;;;11.00;100.00
13080;BME280;6606;49.154;9.280;2024-02-21T10:13:25;100137.84;;;11.11;100.00
13080;BME280;6606;49.154;9.280;2024-02-21T10:16:08;100138.22;;;11.04;100.00
13080;BME280;6606;49.154;9.280;2024-02-21T10:18:54;100129.53;;;11.35;100.00
13080;BME280;6606;49.154;9.280;2024-02-21T10:21:36;100112.72;;;11.52;100.00
13080;BME280;6606;49.154;9.280;2024-02-21T10:24:26;100108.19;;;11.54;100.00
13080;BME280;6606;49.154;9.280;2024-02-21T10:27:08;100113.63;;;11.51;100.00
13080;BME280;6606;49.154;9.280;2024-02-21T10:29:51;100099.50;;;11.83;100.00
13080;BME280;6606;49.154;9.280;2024-02-21T10:32:32;100105.16;;;11.77;100.00
13080;BME280;6606;49.154;9.280;2024-02-21T10:35:25;100100.06;;;12.06;100.00
13080;BME280;6606;49.154;9.280;2024-02-21T10:38:07;100095.13;;;12.31;97.22
13080;BME280;6606;49.154;9.280;2024-02-21T10:40:49;100098.81;;;12.45;96.45
13080;BME280;6606;49.154;9.280;2024-02-21T10:43:38;100089.44;;;12.38;100.00
13080;BME280;6606;49.154;9.280;2024-02-21T10:46:22;100083.06;;;12.56;92.52
13080;BME280;6606;49.154;9.280;2024-02-21T10:49:10;100073.13;;;12.12;96.40
13080;BME280;6606;49.154;9.280;2024-02-21T10:51:59;100064.75;;;12.50;91.90
13080;BME280;6606;49.154;9.280;2024-02-21T10:54:47;100062.09;;;12.50;90.16
13080;BME280;6606;49.154;9.280;2024-02-21T10:57:31;100057.13;;;12.44;91.43
13080;BME280;6606;49.154;9.280;2024-02-21T11:00:15;100054.91;;;12.20;88.27
13080;BME280;6606;49.154;9.280;2024-02-21T11:02:59;100044.06;;;12.39;85.50
13080;BME280;6606;49.154;9.280;2024-02-21T11:05:41;100041.06;;;12.29;91.84
13080;BME280;6606;49.154;9.280;2024-02-21T11:08:27;100041.91;;;12.14;88.36
13080;BME280;6606;49.154;9.280;2024-02-21T11:11:12;100031.63;;;12.24;82.35
13080;BME280;6606;49.154;9.280;2024-02-21T11:14:05;100017.97;;;12.14;87.49
13080;BME280;6606;49.154;9.280;2024-02-21T11:16:47;100016.59;;;12.07;90.79
13080;BME280;6606;49.154;9.280;2024-02-21T11:19:29;100018.22;;;12.25;88.94
13080;BME280;6606;49.154;9.280;2024-02-21T11:22:14;100018.13;;;12.11;84.10
13080;BME280;6606;49.154;9.280;2024-02-21T11:25:07;100004.56;;;12.00;86.10
13080;BME280;6606;49.154;9.280;2024-02-21T11:27:59;100001.28;;;11.79;83.86
13080;BME280;6606;49.154;9.280;2024-02-21T11:30:40;100000.06;;;12.32;84.33
13080;BME280;6606;49.154;9.280;2024-02-21T11:33:24;99986.97;;;12.13;79.59
13080;BME280;6606;49.154;9.280;2024-02-21T11:36:05;99988.06;;;12.41;81.25
13080;BME280;6606;49.154;9.280;2024-02-21T11:38:47;99979.91;;;12.58;82.57
13080;BME280;6606;49.154;9.280;2024-02-21T11:41:30;99968.19;;;12.46;84.45
13080;BME280;6606;49.154;9.280;2024-02-21T11:44:12;99966.38;;;12.47;82.33
13080;BME280;6606;49.154;9.280;2024-02-21T11:46:54;99967.47;;;12.13;85.00
13080;BME280;6606;49.154;9.280;2024-02-21T11:49:36;99959.69;;;12.40;80.79
13080;BME280;6606;49.154;9.280;2024-02-21T11:52:21;99954.81;;;12.62;74.02
13080;BME280;6606;49.154;9.280;2024-02-21T11:55:09;99945.00;;;12.63;70.63
13080;BME280;6606;49.154;9.280;2024-02-21T11:57:52;99943.06;;;12.81;74.40
13080;BME280;6606;49.154;9.280;2024-02-21T12:00:34;99934.88;;;12.84;76.09
13080;BME280;6606;49.154;9.280;2024-02-21T12:03:16;99927.91;;;12.81;71.34
13080;BME280;6606;49.154;9.280;2024-02-21T12:05:58;99933.03;;;12.84;70.31
13080;BME280;6606;49.154;9.280;2024-02-21T12:08:41;99911.81;;;12.83;71.46
13080;BME280;6606;49.154;9.280;2024-02-21T12:11:23;99918.50;;;13.18;73.13
13080;BME280;6606;49.154;9.280;2024-02-21T12:14:06;99904.56;;;12.85;66.23
13080;BME280;6606;49.154;9.280;2024-02-21T12:16:50;99906.75;;;13.07;69.50
13080;BME280;6606;49.154;9.280;2024-02-21T12:19:32;99902.97;;;12.96;70.24
13080;BME280;6606;49.154;9.280;2024-02-21T12:22:16;99899.44;;;13.10;63.26
13080;BME280;6606;49.154;9.280;2024-02-21T12:24:57;99885.34;;;12.65;65.71
13080;BME280;6606;49.154;9.280;2024-02-21T12:27:39;99877.94;;;12.99;69.88
13080;BME280;6606;49.154;9.280;2024-02-21T12:30:22;99881.84;;;13.08;66.66
13080;BME280;6606;49.154;9.280;2024-02-21T12:33:04;99871.06;;;12.95;70.29
13080;BME280;6606;49.154;9.280;2024-02-21T12:35:46;99864.00;;;13.22;65.66
13080;BME280;6606;49.154;9.280;2024-02-21T12:38:29;99860.22;;;13.27;65.56
13080;BME280;6606;49.154;9.280;2024-02-21T12:41:11;99859.81;;;13.33;67.04
13080;BME280;6606;49.154;9.280;2024-02-21T12:43:53;99850.97;;;13.18;66.59
13080;BME280;6606;49.154;9.280;2024-02-21T12:46:36;99841.16;;;13.18;70.35
13080;BME280;6606;49.154;9.280;2024-02-21T12:49:24;99836.00;;;13.30;66.60
13080;BME280;6606;49.154;9.280;2024-02-21T12:52:07;99825.50;;;13.41;63.11
13080;BME280;6606;49.154;9.280;2024-02-21T12:54:49;99820.50;;;12.93;62.53
13080;BME280;6606;49.154;9.280;2024-02-21T12:57:32;99813.25;;;13.10;63.32
13080;BME280;6606;49.154;9.280;2024-02-21T13:00:14;99806.91;;;12.69;62.65
13080;BME280;6606;49.154;9.280;2024-02-21T13:02:57;99802.56;;;12.54;64.22
13080;BME280;6606;49.154;9.280;2024-02-21T13:05:39;99807.66;;;12.43;68.75
13080;BME280;6606;49.154;9.280;2024-02-21T13:08:21;99809.19;;;12.75;74.18
13080;BME280;6606;49.154;9.280;2024-02-21T13:11:03;99795.69;;;12.78;69.09
13080;BME280;6606;49.154;9.280;2024-02-21T13:13:51;99782.25;;;13.21;65.60
13080;BME280;6606;49.154;9.280;2024-02-21T13:16:33;99780.78;;;13.17;66.29
13080;BME280;6606;49.154;9.280;2024-02-21T13:19:20;99773.56;;;13.05;65.65
13080;BME280;6606;49.154;9.280;2024-02-21T13:22:02;99776.13;;;12.92;67.49
13080;BME280;6606;49.154;9.280;2024-02-21T13:24:44;99766.28;;;12.51;67.33
13080;BME280;6606;49.154;9.280;2024-02-21T13:27:26;99751.88;;;12.83;71.72
13080;BME280;6606;49.154;9.280;2024-02-21T13:30:08;99745.28;;;13.03;68.27
13080;BME280;6606;49.154;9.280;2024-02-21T13:32:50;99735.31;;;12.92;65.19
13080;BME280;6606;49.154;9.280;2024-02-21T13:35:33;99725.69;;;13.16;69.96
13080;BME280;6606;49.154;9.280;2024-02-21T13:38:18;99719.06;;;13.09;67.66
13080;BME280;6606;49.154;9.280;2024-02-21T13:41:00;99718.97;;;13.38;65.53
13080;BME280;6606;49.154;9.280;2024-02-21T13:43:42;99714.47;;;13.26;64.96
13080;BME280;6606;49.154;9.280;2024-02-21T13:46:23;99723.09;;;13.02;66.20
13080;BME280;6606;49.154;9.280;2024-02-21T13:49:06;99712.72;;;12.97;68.39
13080;BME280;6606;49.154;9.280;2024-02-21T13:51:49;99708.09;;;12.87;66.88
13080;BME280;6606;49.154;9.280;2024-02-21T13:54:31;99695.75;;;12.98;70.43
13080;BME280;6606;49.154;9.280;2024-02-21T13:57:12;99699.59;;;12.94;68.70
13080;BME280;6606;49.154;9.280;2024-02-21T13:59:54;99697.69;;;12.41;66.95
13080;BME280;6606;49.154;9.280;2024-02-21T14:02:36;99691.09;;;12.61;68.10
13080;BME280;6606;49.154;9.280;2024-02-21T14:05:18;99690.31;;;12.73;68.12
13080;BME280;6606;49.154;9.280;2024-02-21T14:08:01;99678.97;;;12.69;64.09
13080;BME280;6606;49.154;9.280;2024-02-21T14:10:43;99672.53;;;13.00;65.53
13080;BME280;6606;49.154;9.280;2024-02-21T14:13:24;99671.13;;;12.95;71.04
13080;BME280;6606;49.154;9.280;2024-02-21T14:16:09;99668.03;;;13.01;70.98
13080;BME280;6606;49.154;9.280;2024-02-21T14:18:52;99664.44;;;13.02;69.92
13080;BME280;6606;49.154;9.280;2024-02-21T14:21:34;99671.47;;;13.03;71.79
13080;BME280;6606;49.154;9.280;2024-02-21T14:24:19;99668.50;;;12.81;67.09
13080;BME280;6606;49.154;9.280;2024-02-21T14:27:01;99662.06;;;12.70;67.75